Time,TemperatureF,DewpointF,PressureIn,WindDirection,WindDirectionDegrees,WindSpeedMPH,WindSpeedGustMPH,Humidity,HourlyPrecipIn,Conditions,Clouds,dailyrainin,SoftwareType,DateUTC
2013-05-11 00:01:00,53.1,24.0,30.36,South,177,3.6,4.0,32,0.00,,---,0.00,VWS V14.01,2013-05-11 06:01:00,
2013-05-11 00:06:00,52.5,24.3,30.36,SW,224,0.0,4.0,33,0.00,,---,0.00,VWS V14.01,2013-05-11 06:06:00,
2013-05-11 00:11:00,51.6,24.2,30.36,SW,224,0.0,4.0,34,0.00,,---,0.00,VWS V14.01,2013-05-11 06:11:00,
2013-05-11 00:16:00,51.3,25.2,30.36,SW,224,0.0,0.0,36,0.00,,---,0.00,VWS V14.01,2013-05-11 06:16:00,
2013-05-11 00:21:00,50.9,24.9,30.36,SW,224,0.0,0.0,36,0.00,,---,0.00,VWS V14.01,2013-05-11 06:21:00,
2013-05-11 00:26:00,50.5,24.6,30.36,SW,224,0.0,0.0,36,0.00,,---,0.00,VWS V14.01,2013-05-11 06:26:00,
2013-05-11 00:31:00,50.4,24.4,30.36,SW,224,0.0,0.0,36,0.00,,---,0.00,VWS V14.01,2013-05-11 06:31:00,
2013-05-11 00:36:00,50.0,24.8,30.36,SW,224,0.0,0.0,37,0.00,,---,0.00,VWS V14.01,2013-05-11 06:36:00,
2013-05-11 00:41:00,49.8,24.6,30.36,South,190,0.0,0.0,37,0.00,,---,0.00,VWS V14.01,2013-05-11 06:41:00,
2013-05-11 00:46:00,49.6,25.1,30.36,SW,216,0.0,0.0,38,0.00,,---,0.00,VWS V14.01,2013-05-11 06:46:00,
2013-05-11 00:51:00,49.5,24.9,30.36,SW,216,0.0,0.0,38,0.00,,---,0.00,VWS V14.01,2013-05-11 06:51:00,
2013-05-11 00:56:00,49.3,24.8,30.36,SW,216,0.0,0.0,38,0.00,,---,0.00,VWS V14.01,2013-05-11 06:56:00,
2013-05-11 01:01:00,48.9,25.1,30.36,SW,216,0.0,0.0,39,0.00,,---,0.00,VWS V14.01,2013-05-11 07:01:00,
2013-05-11 01:06:00,48.6,25.4,30.36,SW,216,0.0,0.0,40,0.00,,---,0.00,VWS V14.01,2013-05-11 07:06:00,
2013-05-11 01:11:00,48.4,24.6,30.36,SW,216,0.0,0.0,39,0.00,,---,0.00,VWS V14.01,2013-05-11 07:11:00,
2013-05-11 01:16:00,48.4,25.2,30.36,SW,216,0.0,0.0,40,0.00,,---,0.00,VWS V14.01,2013-05-11 07:16:00,
2013-05-11 01:21:00,48.4,24.6,30.36,SW,216,0.0,0.0,39,0.00,,---,0.00,VWS V14.01,2013-05-11 07:21:00,
2013-05-11 01:26:00,48.6,24.7,30.36,WSW,239,0.0,0.0,39,0.00,,---,0.00,VWS V14.01,2013-05-11 07:26:00,
2013-05-11 01:31:00,48.9,25.1,30.36,WSW,240,3.6,4.0,39,0.00,,---,0.00,VWS V14.01,2013-05-11 07:31:00,
2013-05-11 01:36:00,49.5,25.5,30.36,SW,232,0.0,4.0,39,0.00,,---,0.00,VWS V14.01,2013-05-11 07:36:00,
2013-05-11 01:41:00,49.3,25.4,30.36,WSW,252,0.0,4.0,39,0.00,,---,0.00,VWS V14.01,2013-05-11 07:41:00,
2013-05-11 01:46:00,49.1,25.2,30.36,WSW,240,0.0,0.0,39,0.00,,---,0.00,VWS V14.01,2013-05-11 07:46:00,
2013-05-11 01:51:00,48.7,24.9,30.36,WSW,245,0.0,0.0,39,0.00,,---,0.00,VWS V14.01,2013-05-11 07:51:00,
2013-05-11 01:56:00,48.2,25.0,30.36,West,271,0.0,2.7,40,0.00,,---,0.00,VWS V14.01,2013-05-11 07:56:00,
2013-05-11 02:01:00,47.8,24.7,30.36,South,170,0.0,0.0,40,0.00,,---,0.00,VWS V14.01,2013-05-11 08:01:00,
2013-05-11 02:06:00,48.2,25.0,30.36,South,173,0.0,0.0,40,0.00,,---,0.00,VWS V14.01,2013-05-11 08:06:00,
2013-05-11 02:11:00,47.8,24.7,30.36,SW,232,0.0,0.0,40,0.00,,---,0.00,VWS V14.01,2013-05-11 08:11:00,
2013-05-11 02:16:00,47.7,25.1,30.36,SW,232,0.0,0.0,41,0.00,,---,0.00,VWS V14.01,2013-05-11 08:16:00,
2013-05-11 02:21:00,47.1,24.1,30.36,South,175,0.0,0.0,40,0.00,,---,0.00,VWS V14.01,2013-05-11 08:21:00,
2013-05-11 02:26:00,46.9,24.5,30.36,WSW,257,0.0,0.0,41,0.00,,---,0.00,VWS V14.01,2013-05-11 08:26:00,
2013-05-11 02:31:00,46.6,24.7,30.36,West,262,0.0,0.0,42,0.00,,---,0.00,VWS V14.01,2013-05-11 08:31:00,
2013-05-11 02:36:00,46.0,24.8,30.36,West,262,0.0,0.0,43,0.00,,---,0.00,VWS V14.01,2013-05-11 08:36:00,
2013-05-11 02:41:00,45.9,24.6,30.36,West,262,0.0,0.0,43,0.00,,---,0.00,VWS V14.01,2013-05-11 08:41:00,
2013-05-11 02:46:00,45.5,24.9,30.36,West,262,0.0,0.0,44,0.00,,---,0.00,VWS V14.01,2013-05-11 08:46:00,
2013-05-11 02:51:00,45.3,25.2,30.36,West,262,0.0,0.0,45,0.00,,---,0.00,VWS V14.01,2013-05-11 08:51:00,
2013-05-11 02:56:00,45.9,26.3,30.36,WSW,244,0.0,4.0,46,0.00,,---,0.00,VWS V14.01,2013-05-11 08:56:00,
2013-05-11 03:01:00,46.2,26.1,30.36,West,261,0.0,0.0,45,0.00,,---,0.00,VWS V14.01,2013-05-11 09:01:00,
2013-05-11 03:06:00,46.0,25.9,30.36,West,261,0.0,0.0,45,0.00,,---,0.00,VWS V14.01,2013-05-11 09:06:00,
2013-05-11 03:11:00,45.7,25.6,30.36,West,261,0.0,0.0,45,0.00,,---,0.00,VWS V14.01,2013-05-11 09:11:00,
2013-05-11 03:16:00,45.1,24.5,30.36,West,261,0.0,0.0,44,0.00,,---,0.00,VWS V14.01,2013-05-11 09:16:00,
2013-05-11 03:21:00,44.6,24.6,30.36,West,261,0.0,0.0,45,0.00,,---,0.00,VWS V14.01,2013-05-11 09:21:00,
2013-05-11 03:26:00,44.1,24.6,30.36,West,261,0.0,0.0,46,0.00,,---,0.00,VWS V14.01,2013-05-11 09:26:00,
2013-05-11 03:31:00,43.9,25.0,30.36,West,261,0.0,0.0,47,0.00,,---,0.00,VWS V14.01,2013-05-11 09:31:00,
2013-05-11 03:36:00,43.9,25.0,30.36,WSW,248,0.0,0.0,47,0.00,,---,0.00,VWS V14.01,2013-05-11 09:36:00,
2013-05-11 03:41:00,43.7,25.3,30.36,WSW,253,0.0,0.0,48,0.00,,---,0.00,VWS V14.01,2013-05-11 09:41:00,
2013-05-11 03:46:00,43.5,25.6,30.36,WSW,253,0.0,0.0,49,0.00,,---,0.00,VWS V14.01,2013-05-11 09:46:00,
2013-05-11 03:51:00,43.2,25.3,30.36,WSW,253,0.0,0.0,49,0.00,,---,0.00,VWS V14.01,2013-05-11 09:51:00,
2013-05-11 03:56:00,43.3,26.0,30.36,WSW,253,0.0,0.0,50,0.00,,---,0.00,VWS V14.01,2013-05-11 09:56:00,
2013-05-11 04:01:00,43.3,26.0,30.36,WSW,253,0.0,0.0,50,0.00,,---,0.00,VWS V14.01,2013-05-11 10:01:00,
2013-05-11 04:06:00,43.2,25.8,30.36,WSW,253,0.0,0.0,50,0.00,,---,0.00,VWS V14.01,2013-05-11 10:06:00,
2013-05-11 04:11:00,43.0,25.6,30.36,WSW,253,0.0,0.0,50,0.00,,---,0.00,VWS V14.01,2013-05-11 10:11:00,
2013-05-11 04:16:00,43.2,25.8,30.36,WSW,253,0.0,0.0,50,0.00,,---,0.00,VWS V14.01,2013-05-11 10:16:00,
2013-05-11 04:21:00,43.5,26.1,30.36,West,261,0.0,0.0,50,0.00,,---,0.00,VWS V14.01,2013-05-11 10:21:00,
2013-05-11 04:26:00,43.2,25.8,30.36,West,261,0.0,0.0,50,0.00,,---,0.00,VWS V14.01,2013-05-11 10:26:00,
2013-05-11 04:31:00,42.8,25.5,30.36,West,261,0.0,0.0,50,0.00,,---,0.00,VWS V14.01,2013-05-11 10:31:00,
2013-05-11 04:36:00,42.4,25.6,30.36,West,261,0.0,0.0,51,0.00,,---,0.00,VWS V14.01,2013-05-11 10:36:00,
2013-05-11 04:41:00,42.4,26.1,30.36,WSW,246,0.0,0.0,52,0.00,,---,0.00,VWS V14.01,2013-05-11 10:41:00,
2013-05-11 04:46:00,43.0,26.1,30.36,SW,229,3.1,3.1,51,0.00,,---,0.00,VWS V14.01,2013-05-11 10:46:00,
2013-05-11 04:51:00,44.1,27.6,30.36,South,190,4.0,5.8,52,0.00,,---,0.00,VWS V14.01,2013-05-11 10:51:00,
2013-05-11 04:56:00,46.0,28.9,30.36,South,175,3.1,5.8,51,0.00,,---,0.00,VWS V14.01,2013-05-11 10:56:00,
2013-05-11 05:01:00,46.6,28.5,30.36,South,183,0.0,0.0,49,0.00,,---,0.00,VWS V14.01,2013-05-11 11:01:00,
2013-05-11 05:06:00,45.9,27.3,30.36,SSW,196,0.0,0.0,48,0.00,,---,0.00,VWS V14.01,2013-05-11 11:06:00,
2013-05-11 05:11:00,45.7,27.1,30.36,SSW,196,0.0,0.0,48,0.00,,---,0.00,VWS V14.01,2013-05-11 11:11:00,
2013-05-11 05:16:00,44.8,26.3,30.36,SSW,196,0.0,0.0,48,0.00,,---,0.00,VWS V14.01,2013-05-11 11:16:00,
2013-05-11 05:21:00,44.1,25.6,30.36,SSW,196,0.0,0.0,48,0.00,,---,0.00,VWS V14.01,2013-05-11 11:21:00,
2013-05-11 05:26:00,43.5,25.6,30.36,SSW,196,0.0,0.0,49,0.00,,---,0.00,VWS V14.01,2013-05-11 11:26:00,
2013-05-11 05:31:00,43.3,25.5,30.36,SSW,196,0.0,0.0,49,0.00,,---,0.00,VWS V14.01,2013-05-11 11:31:00,
2013-05-11 05:36:00,43.3,26.0,30.36,SSW,196,0.0,0.0,50,0.00,,---,0.00,VWS V14.01,2013-05-11 11:36:00,
2013-05-11 05:41:00,43.0,25.6,30.36,SSW,196,0.0,0.0,50,0.00,,---,0.00,VWS V14.01,2013-05-11 11:41:00,
2013-05-11 05:46:00,42.8,25.5,30.36,SSW,196,0.0,0.0,50,0.00,,---,0.00,VWS V14.01,2013-05-11 11:46:00,
2013-05-11 05:51:00,42.4,25.6,30.36,SW,234,0.0,0.0,51,0.00,,---,0.00,VWS V14.01,2013-05-11 11:51:00,
2013-05-11 05:56:00,42.8,26.4,30.36,West,275,0.0,0.0,52,0.00,,---,0.00,VWS V14.01,2013-05-11 11:56:00,
2013-05-11 06:01:00,42.4,26.1,30.36,West,275,0.0,0.0,52,0.00,,---,0.00,VWS V14.01,2013-05-11 12:01:00,
2013-05-11 06:06:00,42.8,25.9,30.36,West,275,0.0,0.0,51,0.00,,---,0.00,VWS V14.01,2013-05-11 12:06:00,
2013-05-11 06:11:00,42.8,26.4,30.36,West,271,0.0,0.0,52,0.00,,---,0.00,VWS V14.01,2013-05-11 12:11:00,
2013-05-11 06:16:00,43.0,26.6,30.36,WSW,243,0.0,0.0,52,0.00,,---,0.00,VWS V14.01,2013-05-11 12:16:00,
2013-05-11 06:21:00,43.5,27.1,30.36,West,273,0.0,0.0,52,0.00,,---,0.00,VWS V14.01,2013-05-11 12:21:00,
2013-05-11 06:26:00,43.3,26.9,30.36,West,273,0.0,0.0,52,0.00,,---,0.00,VWS V14.01,2013-05-11 12:26:00,
2013-05-11 06:31:00,43.3,26.9,30.36,West,273,0.0,0.0,52,0.00,,---,0.00,VWS V14.01,2013-05-11 12:31:00,
2013-05-11 06:36:00,43.5,27.1,30.36,West,273,0.0,0.0,52,0.00,,---,0.00,VWS V14.01,2013-05-11 12:36:00,
2013-05-11 06:41:00,43.7,27.7,30.36,West,273,0.0,0.0,53,0.00,,---,0.00,VWS V14.01,2013-05-11 12:41:00,
2013-05-11 06:46:00,44.1,28.0,30.36,West,268,0.0,0.0,53,0.00,,---,0.00,VWS V14.01,2013-05-11 12:46:00,
2013-05-11 06:51:00,44.1,27.6,30.36,West,262,0.0,0.0,52,0.00,,---,0.00,VWS V14.01,2013-05-11 12:51:00,
2013-05-11 06:56:00,44.1,27.6,30.36,West,262,0.0,0.0,52,0.00,,---,0.00,VWS V14.01,2013-05-11 12:56:00,
2013-05-11 07:01:00,44.8,28.7,30.36,West,271,0.0,0.0,53,0.00,,---,0.00,VWS V14.01,2013-05-11 13:01:00,
2013-05-11 07:06:00,44.8,28.2,30.36,West,271,0.0,0.0,52,0.00,,---,0.00,VWS V14.01,2013-05-11 13:06:00,
2013-05-11 07:11:00,44.8,28.2,30.36,West,271,0.0,0.0,52,0.00,,---,0.00,VWS V14.01,2013-05-11 13:11:00,
2013-05-11 07:16:00,45.0,28.4,30.36,West,271,0.0,0.0,52,0.00,,---,0.00,VWS V14.01,2013-05-11 13:16:00,
2013-05-11 07:21:00,45.3,28.8,30.36,West,271,0.0,0.0,52,0.00,,---,0.00,VWS V14.01,2013-05-11 13:21:00,
2013-05-11 07:26:00,46.6,30.4,30.36,West,271,0.0,0.0,53,0.00,,---,0.00,VWS V14.01,2013-05-11 13:26:00,
2013-05-11 07:31:00,48.0,31.7,30.36,West,271,0.0,0.0,53,0.00,,---,0.00,VWS V14.01,2013-05-11 13:31:00,
2013-05-11 07:36:00,49.6,32.8,30.36,WSW,250,0.0,0.0,52,0.00,,---,0.00,VWS V14.01,2013-05-11 13:36:00,
2013-05-11 07:41:00,51.3,33.3,30.36,WSW,250,0.0,0.0,50,0.00,,---,0.00,VWS V14.01,2013-05-11 13:41:00,
2013-05-11 07:46:00,52.0,32.9,30.36,SE,141,2.7,3.6,48,0.00,,---,0.00,VWS V14.01,2013-05-11 13:46:00,
2013-05-11 07:51:00,51.4,32.4,30.36,SSE,149,0.0,3.6,48,0.00,,---,0.00,VWS V14.01,2013-05-11 13:51:00,
2013-05-11 07:56:00,51.4,31.9,30.36,SE,128,0.0,3.6,47,0.00,,---,0.00,VWS V14.01,2013-05-11 13:56:00,
2013-05-11 08:01:00,51.6,32.1,30.36,SE,128,0.0,0.0,47,0.00,,---,0.00,VWS V14.01,2013-05-11 14:01:00,
2013-05-11 08:06:00,52.2,32.0,30.36,SE,128,0.0,0.0,46,0.00,,---,0.00,VWS V14.01,2013-05-11 14:06:00,
2013-05-11 08:11:00,53.8,31.8,30.36,SE,127,0.0,0.0,43,0.00,,---,0.00,VWS V14.01,2013-05-11 14:11:00,
2013-05-11 08:16:00,56.3,32.9,30.36,SSE,152,0.0,0.0,41,0.00,,---,0.00,VWS V14.01,2013-05-11 14:16:00,
2013-05-11 08:21:00,57.9,33.8,30.36,SSE,151,0.0,0.0,40,0.00,,---,0.00,VWS V14.01,2013-05-11 14:21:00,
2013-05-11 08:26:00,59.5,33.9,30.36,SSE,151,0.0,0.0,38,0.00,,---,0.00,VWS V14.01,2013-05-11 14:26:00,
2013-05-11 08:31:00,60.8,33.0,30.36,SSE,151,0.0,0.0,35,0.00,,---,0.00,VWS V14.01,2013-05-11 14:31:00,
2013-05-11 08:36:00,61.3,32.8,30.36,SE,144,2.7,3.6,34,0.00,,---,0.00,VWS V14.01,2013-05-11 14:36:00,
2013-05-11 08:41:00,61.5,32.9,30.36,SE,139,3.6,3.6,34,0.00,,---,0.00,VWS V14.01,2013-05-11 14:41:00,
2013-05-11 08:46:00,61.5,32.2,30.36,ESE,117,2.7,2.7,33,0.00,,---,0.00,VWS V14.01,2013-05-11 14:46:00,
2013-05-11 08:51:00,62.4,32.2,30.36,SSE,163,0.0,3.1,32,0.00,,---,0.00,VWS V14.01,2013-05-11 14:51:00,
2013-05-11 08:56:00,63.9,32.7,30.36,South,170,0.0,3.1,31,0.00,,---,0.00,VWS V14.01,2013-05-11 14:56:00,
2013-05-11 09:01:00,64.9,30.2,30.36,SSW,199,4.0,4.0,27,0.00,,---,0.00,VWS V14.01,2013-05-11 15:01:00,
2013-05-11 09:07:00,66.0,30.2,30.36,East,92,4.0,5.8,26,0.00,,---,0.00,VWS V14.01,2013-05-11 15:07:00,
2013-05-11 09:12:00,67.5,30.4,30.33,SE,143,3.1,5.8,25,0.00,,---,0.00,VWS V14.01,2013-05-11 15:12:00,
2013-05-11 09:17:00,68.2,30.0,30.33,East,100,4.9,4.9,24,0.00,,---,0.00,VWS V14.01,2013-05-11 15:17:00,
2013-05-11 09:22:00,68.5,29.3,30.33,SE,133,3.1,4.9,23,0.00,,---,0.00,VWS V14.01,2013-05-11 15:22:00,
2013-05-11 09:27:00,67.6,29.6,30.33,SE,146,2.2,4.9,24,0.00,,---,0.00,VWS V14.01,2013-05-11 15:27:00,
2013-05-11 09:32:00,67.6,29.6,30.33,East,82,2.7,3.1,24,0.00,,---,0.00,VWS V14.01,2013-05-11 15:32:00,
2013-05-11 09:37:00,68.4,29.1,30.33,East,82,2.7,4.9,23,0.00,,---,0.00,VWS V14.01,2013-05-11 15:37:00,
2013-05-11 09:42:00,68.7,29.5,30.33,ENE,75,0.0,4.9,23,0.00,,---,0.00,VWS V14.01,2013-05-11 15:42:00,
2013-05-11 09:47:00,69.4,30.1,30.33,SE,145,0.0,2.7,23,0.00,,---,0.00,VWS V14.01,2013-05-11 15:47:00,
2013-05-11 09:52:00,70.2,29.6,30.33,ESE,116,4.0,5.4,22,0.00,,---,0.00,VWS V14.01,2013-05-11 15:52:00,
2013-05-11 09:57:00,70.3,29.7,30.33,ESE,114,0.0,5.4,22,0.00,,---,0.00,VWS V14.01,2013-05-11 15:57:00,
2013-05-11 10:02:00,70.9,30.2,30.33,ENE,62,0.0,0.0,22,0.00,,---,0.00,VWS V14.01,2013-05-11 16:02:00,
2013-05-11 10:07:00,70.7,30.0,30.33,NNE,16,0.0,3.6,22,0.00,,---,0.00,VWS V14.01,2013-05-11 16:07:00,
2013-05-11 10:12:00,71.4,30.6,30.33,SSE,148,0.0,3.6,22,0.00,,---,0.00,VWS V14.01,2013-05-11 16:12:00,
2013-05-11 10:17:00,73.2,32.1,30.33,East,98,2.2,3.6,22,0.00,,---,0.00,VWS V14.01,2013-05-11 16:17:00,
2013-05-11 10:22:00,73.9,31.6,30.33,ENE,59,0.0,3.6,21,0.00,,---,0.00,VWS V14.01,2013-05-11 16:22:00,
2013-05-11 10:27:00,73.9,31.6,30.33,ENE,60,0.0,3.6,21,0.00,,---,0.00,VWS V14.01,2013-05-11 16:27:00,
2013-05-11 10:32:00,72.7,30.5,30.33,North,2,2.7,3.6,21,0.00,,---,0.00,VWS V14.01,2013-05-11 16:32:00,
2013-05-11 10:37:00,72.1,31.2,30.33,ENE,75,0.0,3.6,22,0.00,,---,0.00,VWS V14.01,2013-05-11 16:37:00,
2013-05-11 10:42:00,72.9,31.8,30.33,ESE,109,0.0,3.6,22,0.00,,---,0.00,VWS V14.01,2013-05-11 16:42:00,
2013-05-11 10:47:00,72.1,31.2,30.33,NNW,331,0.0,5.4,22,0.00,,---,0.00,VWS V14.01,2013-05-11 16:47:00,
2013-05-11 10:52:00,72.0,31.1,30.33,North,0,4.0,5.4,22,0.00,,---,0.00,VWS V14.01,2013-05-11 16:52:00,
2013-05-11 10:57:00,72.0,31.1,30.33,NNW,331,0.0,5.4,22,0.00,,---,0.00,VWS V14.01,2013-05-11 16:57:00,
2013-05-11 11:02:00,72.1,31.2,30.33,NW,307,0.0,2.7,22,0.00,,---,0.00,VWS V14.01,2013-05-11 17:02:00,
2013-05-11 11:07:00,72.0,31.1,30.33,North,5,0.0,4.9,22,0.00,,---,0.00,VWS V14.01,2013-05-11 17:07:00,
2013-05-11 11:12:00,72.7,31.7,30.33,ENE,72,3.6,4.9,22,0.00,,---,0.00,VWS V14.01,2013-05-11 17:12:00,
2013-05-11 11:17:00,74.8,32.3,30.33,NE,36,2.2,2.7,21,0.00,,---,0.00,VWS V14.01,2013-05-11 17:17:00,
2013-05-11 11:22:00,76.8,34.0,30.33,ENE,60,2.7,3.1,21,0.00,,---,0.00,VWS V14.01,2013-05-11 17:22:00,
2013-05-11 11:27:00,76.6,32.6,30.33,NNW,348,3.1,3.6,20,0.00,,---,0.00,VWS V14.01,2013-05-11 17:27:00,
2013-05-11 11:32:00,74.5,32.0,30.33,NNE,16,3.1,5.8,21,0.00,,---,0.00,VWS V14.01,2013-05-11 17:32:00,
2013-05-11 11:37:00,74.7,32.2,30.33,North,2,3.6,5.8,21,0.00,,---,0.00,VWS V14.01,2013-05-11 17:37:00,
2013-05-11 11:42:00,75.4,31.6,30.30,NW,313,0.0,5.8,20,0.00,,---,0.00,VWS V14.01,2013-05-11 17:42:00,
2013-05-11 11:47:00,77.0,32.9,30.30,NE,45,3.1,5.4,20,0.00,,---,0.00,VWS V14.01,2013-05-11 17:47:00,
2013-05-11 11:52:00,77.7,33.5,30.30,ENE,62,3.6,5.4,20,0.00,,---,0.00,VWS V14.01,2013-05-11 17:52:00,
2013-05-11 11:57:00,78.3,33.9,30.30,NNE,23,2.2,5.4,20,0.00,,---,0.00,VWS V14.01,2013-05-11 17:57:00,
2013-05-11 12:02:00,78.1,31.2,30.30,NNE,20,0.0,0.0,18,0.00,,---,0.00,VWS V14.01,2013-05-11 18:02:00,
2013-05-11 12:07:00,77.9,33.6,30.30,North,0,0.0,4.0,20,0.00,,---,0.00,VWS V14.01,2013-05-11 18:07:00,
2013-05-11 12:12:00,78.6,31.6,30.30,North,357,2.7,5.4,18,0.00,,---,0.00,VWS V14.01,2013-05-11 18:12:00,
2013-05-11 12:17:00,79.3,30.8,30.30,East,93,3.1,4.0,17,0.00,,---,0.00,VWS V14.01,2013-05-11 18:17:00,
2013-05-11 12:22:00,80.8,32.0,30.30,ENE,59,2.2,4.5,17,0.00,,---,0.00,VWS V14.01,2013-05-11 18:22:00,
2013-05-11 12:27:00,80.8,32.0,30.30,ENE,72,0.0,5.4,17,0.00,,---,0.00,VWS V14.01,2013-05-11 18:27:00,
2013-05-11 12:32:00,81.1,32.2,30.30,SE,139,0.0,3.1,17,0.00,,---,0.00,VWS V14.01,2013-05-11 18:32:00,
2013-05-11 12:37:00,79.3,30.8,30.30,North,3,2.7,3.1,17,0.00,,---,0.00,VWS V14.01,2013-05-11 18:37:00,
2013-05-11 12:42:00,77.9,31.0,30.30,North,7,0.0,4.0,18,0.00,,---,0.00,VWS V14.01,2013-05-11 18:42:00,
2013-05-11 12:47:00,78.3,31.3,30.30,NNE,28,0.0,0.0,18,0.00,,---,0.00,VWS V14.01,2013-05-11 18:47:00,
2013-05-11 12:52:00,78.3,31.3,30.30,NNE,17,0.0,0.0,18,0.00,,---,0.00,VWS V14.01,2013-05-11 18:52:00,
2013-05-11 12:57:00,78.8,30.4,30.30,ENE,74,0.0,0.0,17,0.00,,---,0.00,VWS V14.01,2013-05-11 18:57:00,
2013-05-11 13:02:00,80.6,31.8,30.30,NE,53,0.0,0.0,17,0.00,,---,0.00,VWS V14.01,2013-05-11 19:02:00,
2013-05-11 13:07:00,81.7,32.7,30.30,NNE,15,0.0,0.0,17,0.00,,---,0.00,VWS V14.01,2013-05-11 19:07:00,
2013-05-11 13:12:00,83.5,32.6,30.27,ESE,116,3.6,4.0,16,0.00,,---,0.00,VWS V14.01,2013-05-11 19:12:00,
2013-05-11 13:17:00,85.3,34.1,30.27,SE,138,0.0,3.1,16,0.00,,---,0.00,VWS V14.01,2013-05-11 19:17:00,
2013-05-11 13:22:00,86.9,30.2,30.27,ENE,78,0.0,4.9,13,0.00,,---,0.00,VWS V14.01,2013-05-11 19:22:00,
2013-05-11 13:27:00,87.1,30.3,30.27,ESE,111,2.7,5.8,13,0.00,,---,0.00,VWS V14.01,2013-05-11 19:27:00,
2013-05-11 13:32:00,87.6,30.8,30.27,East,91,2.7,5.4,13,0.00,,---,0.00,VWS V14.01,2013-05-11 19:32:00,
2013-05-11 13:37:00,87.4,30.6,30.27,ESE,108,2.7,6.7,13,0.00,,---,0.00,VWS V14.01,2013-05-11 19:37:00,
2013-05-11 13:42:00,87.8,30.9,30.27,NNE,33,3.6,6.7,13,0.00,,---,0.00,VWS V14.01,2013-05-11 19:42:00,
2013-05-11 13:47:00,87.3,30.5,30.27,North,3,4.0,4.0,13,0.00,,---,0.00,VWS V14.01,2013-05-11 19:47:00,
2013-05-11 13:52:00,87.1,30.3,30.27,SSE,147,3.6,5.4,13,0.00,,---,0.00,VWS V14.01,2013-05-11 19:52:00,
2013-05-11 13:57:00,86.5,29.9,30.27,NNE,18,2.2,5.4,13,0.00,,---,0.00,VWS V14.01,2013-05-11 19:57:00,
2013-05-11 14:02:00,87.1,30.3,30.27,NE,41,3.1,5.8,13,0.00,,---,0.00,VWS V14.01,2013-05-11 20:02:00,
2013-05-11 14:07:00,87.4,30.6,30.27,South,186,5.8,8.3,13,0.00,,---,0.00,VWS V14.01,2013-05-11 20:07:00,
2013-05-11 14:12:00,85.5,29.1,30.27,South,191,5.8,12.8,13,0.00,,---,0.00,VWS V14.01,2013-05-11 20:12:00,
2013-05-11 14:17:00,83.3,29.2,30.27,ESE,111,4.0,10.1,14,0.00,,---,0.00,VWS V14.01,2013-05-11 20:17:00,
2013-05-11 14:22:00,83.7,29.5,30.27,WSW,253,2.7,10.1,14,0.00,,---,0.00,VWS V14.01,2013-05-11 20:22:00,
2013-05-11 14:27:00,86.0,29.5,30.27,WSW,237,7.2,11.0,13,0.00,,---,0.00,VWS V14.01,2013-05-11 20:27:00,
2013-05-11 14:32:00,87.8,30.9,30.27,West,281,2.2,6.3,13,0.00,,---,0.00,VWS V14.01,2013-05-11 20:32:00,
2013-05-11 14:37:00,89.1,31.9,30.27,SSW,193,5.8,6.3,13,0.00,,---,0.00,VWS V14.01,2013-05-11 20:37:00,
2013-05-11 14:42:00,88.2,31.2,30.27,South,191,8.1,8.7,13,0.00,,---,0.00,VWS V14.01,2013-05-11 20:42:00,
2013-05-11 14:47:00,89.4,32.2,30.27,NW,309,5.4,5.4,13,0.00,,---,0.00,VWS V14.01,2013-05-11 20:47:00,
2013-05-11 14:52:00,89.2,32.0,30.27,NW,304,3.6,6.3,13,0.00,,---,0.00,VWS V14.01,2013-05-11 20:52:00,
2013-05-11 14:57:00,90.3,30.9,30.27,NW,319,5.8,6.3,12,0.00,,---,0.00,VWS V14.01,2013-05-11 20:57:00,
2013-05-11 15:02:00,86.7,30.0,30.27,North,353,2.2,4.9,13,0.00,,---,0.00,VWS V14.01,2013-05-11 21:02:00,
2013-05-11 15:07:00,85.5,29.1,30.27,ENE,61,2.2,5.8,13,0.00,,---,0.00,VWS V14.01,2013-05-11 21:07:00,
2013-05-11 15:12:00,85.5,29.1,30.27,North,357,2.7,5.8,13,0.00,,---,0.00,VWS V14.01,2013-05-11 21:12:00,
2013-05-11 15:17:00,83.8,29.6,30.27,North,2,4.0,6.3,14,0.00,,---,0.00,VWS V14.01,2013-05-11 21:17:00,
2013-05-11 15:22:00,82.4,28.5,30.27,West,275,2.7,6.3,14,0.00,,---,0.00,VWS V14.01,2013-05-11 21:22:00,
2013-05-11 15:27:00,83.3,29.2,30.27,NNW,329,8.1,8.1,14,0.00,,---,0.00,VWS V14.01,2013-05-11 21:27:00,
2013-05-11 15:32:00,85.6,29.2,30.27,NW,313,5.8,7.6,13,0.00,,---,0.00,VWS V14.01,2013-05-11 21:32:00,
2013-05-11 15:37:00,86.7,30.0,30.27,North,11,3.6,7.6,13,0.00,,---,0.00,VWS V14.01,2013-05-11 21:37:00,
2013-05-11 15:42:00,86.2,29.6,30.27,SSE,166,4.0,7.6,13,0.00,,---,0.00,VWS V14.01,2013-05-11 21:42:00,
2013-05-11 15:47:00,84.6,28.4,30.27,WNW,286,3.1,5.8,13,0.00,,---,0.00,VWS V14.01,2013-05-11 21:47:00,
2013-05-11 15:52:00,83.3,29.2,30.27,NW,310,3.6,6.3,14,0.00,,---,0.00,VWS V14.01,2013-05-11 21:52:00,
2013-05-11 15:57:00,82.4,28.5,30.27,WSW,243,0.0,6.3,14,0.00,,---,0.00,VWS V14.01,2013-05-11 21:57:00,
2013-05-11 16:02:00,83.8,29.6,30.27,North,349,3.6,6.3,14,0.00,,---,0.00,VWS V14.01,2013-05-11 22:02:00,
2013-05-11 16:07:00,82.8,28.8,30.27,NNW,329,2.7,8.1,14,0.00,,---,0.00,VWS V14.01,2013-05-11 22:07:00,
2013-05-11 16:12:00,84.4,28.2,30.24,WNW,284,5.4,8.1,13,0.00,,---,0.00,VWS V14.01,2013-05-11 22:12:00,
2013-05-11 16:17:00,87.3,30.5,30.24,WNW,303,3.1,4.0,13,0.00,,---,0.00,VWS V14.01,2013-05-11 22:17:00,
2013-05-11 16:22:00,85.1,28.8,30.24,NW,304,5.4,5.8,13,0.00,,---,0.00,VWS V14.01,2013-05-11 22:22:00,
2013-05-11 16:27:00,86.2,29.6,30.24,NNE,19,4.0,6.3,13,0.00,,---,0.00,VWS V14.01,2013-05-11 22:27:00,
2013-05-11 16:32:00,87.4,30.6,30.24,WNW,302,2.7,4.9,13,0.00,,---,0.00,VWS V14.01,2013-05-11 22:32:00,
2013-05-11 16:37:00,87.3,30.5,30.24,NW,306,5.4,5.8,13,0.00,,---,0.00,VWS V14.01,2013-05-11 22:37:00,
2013-05-11 16:42:00,87.6,30.8,30.24,West,277,4.0,6.3,13,0.00,,---,0.00,VWS V14.01,2013-05-11 22:42:00,
2013-05-11 16:47:00,87.6,30.8,30.24,West,276,4.5,5.8,13,0.00,,---,0.00,VWS V14.01,2013-05-11 22:47:00,
2013-05-11 16:52:00,88.3,31.3,30.24,NW,308,5.8,7.6,13,0.00,,---,0.00,VWS V14.01,2013-05-11 22:52:00,
2013-05-11 16:57:00,87.6,30.8,30.24,NNW,338,5.4,8.1,13,0.00,,---,0.00,VWS V14.01,2013-05-11 22:57:00,
2013-05-11 17:02:00,87.3,30.5,30.24,South,172,4.0,7.6,13,0.00,,---,0.00,VWS V14.01,2013-05-11 23:02:00,
2013-05-11 17:07:00,87.1,30.3,30.24,SSW,203,7.6,8.7,13,0.00,,---,0.00,VWS V14.01,2013-05-11 23:07:00,
2013-05-11 17:12:00,87.1,30.3,30.24,ESE,116,3.6,8.7,13,0.00,,---,0.00,VWS V14.01,2013-05-11 23:12:00,
2013-05-11 17:17:00,87.6,30.8,30.24,North,8,3.1,4.0,13,0.00,,---,0.00,VWS V14.01,2013-05-11 23:17:00,
2013-05-11 17:22:00,87.1,30.3,30.24,WSW,251,3.1,5.4,13,0.00,,---,0.00,VWS V14.01,2013-05-11 23:22:00,
2013-05-11 17:27:00,86.2,29.6,30.24,NW,315,3.1,5.4,13,0.00,,---,0.00,VWS V14.01,2013-05-11 23:27:00,
2013-05-11 17:32:00,84.7,28.5,30.24,SE,136,2.2,6.3,13,0.00,,---,0.00,VWS V14.01,2013-05-11 23:32:00,
2013-05-11 17:37:00,84.7,28.5,30.24,SSE,160,4.0,8.1,13,0.00,,---,0.00,VWS V14.01,2013-05-11 23:37:00,
2013-05-11 17:42:00,84.7,28.5,30.24,SSE,148,3.6,8.1,13,0.00,,---,0.00,VWS V14.01,2013-05-11 23:42:00,
2013-05-11 17:47:00,84.7,28.5,30.24,SE,146,5.4,7.6,13,0.00,,---,0.00,VWS V14.01,2013-05-11 23:47:00,
2013-05-11 17:52:00,84.2,28.1,30.24,SSE,163,0.0,8.1,13,0.00,,---,0.00,VWS V14.01,2013-05-11 23:52:00,
2013-05-11 17:57:00,85.3,28.9,30.21,SSE,156,3.6,8.1,13,0.00,,---,0.00,VWS V14.01,2013-05-11 23:57:00,
2013-05-11 18:02:00,85.8,29.4,30.21,ESE,112,0.0,0.0,13,0.00,,---,0.00,VWS V14.01,2013-05-12 00:02:00,
2013-05-11 18:07:00,87.1,30.3,30.21,East,95,0.0,0.0,13,0.00,,---,0.00,VWS V14.01,2013-05-12 00:07:00,
2013-05-11 18:12:00,87.4,30.6,30.24,SW,222,2.2,2.2,13,0.00,,---,0.00,VWS V14.01,2013-05-12 00:12:00,
2013-05-11 18:17:00,86.9,30.2,30.24,NW,314,0.0,3.1,13,0.00,,---,0.00,VWS V14.01,2013-05-12 00:17:00,
2013-05-11 18:22:00,86.0,29.5,30.24,SSW,195,5.4,5.8,13,0.00,,---,0.00,VWS V14.01,2013-05-12 00:22:00,
2013-05-11 18:27:00,85.3,28.9,30.21,West,260,0.0,8.7,13,0.00,,---,0.00,VWS V14.01,2013-05-12 00:27:00,
2013-05-11 18:32:00,85.5,29.1,30.21,WSW,250,2.2,4.0,13,0.00,,---,0.00,VWS V14.01,2013-05-12 00:32:00,
2013-05-11 18:37:00,85.3,28.9,30.21,SW,214,6.7,6.7,13,0.00,,---,0.00,VWS V14.01,2013-05-12 00:37:00,
2013-05-11 18:42:00,84.2,28.1,30.21,SSW,196,7.6,10.5,13,0.00,,---,0.00,VWS V14.01,2013-05-12 00:42:00,
2013-05-11 18:47:00,83.1,29.0,30.21,SW,220,2.7,5.4,14,0.00,,---,0.00,VWS V14.01,2013-05-12 00:47:00,
2013-05-11 18:52:00,82.4,28.5,30.21,SW,233,5.4,7.2,14,0.00,,---,0.00,VWS V14.01,2013-05-12 00:52:00,
2013-05-11 18:57:00,82.0,28.2,30.21,SW,221,4.0,7.2,14,0.00,,---,0.00,VWS V14.01,2013-05-12 00:57:00,
2013-05-11 19:02:00,82.2,28.3,30.21,SW,230,8.1,8.1,14,0.00,,---,0.00,VWS V14.01,2013-05-12 01:02:00,
2013-05-11 19:07:00,81.7,27.9,30.21,SW,235,5.8,10.5,14,0.00,,---,0.00,VWS V14.01,2013-05-12 01:07:00,
2013-05-11 19:12:00,81.1,27.5,30.21,South,189,4.0,10.5,14,0.00,,---,0.00,VWS V14.01,2013-05-12 01:12:00,
2013-05-11 19:17:00,80.6,27.0,30.21,South,176,4.0,5.8,14,0.00,,---,0.00,VWS V14.01,2013-05-12 01:17:00,
2013-05-11 19:22:00,80.4,28.6,30.21,WSW,245,5.4,8.1,15,0.00,,---,0.00,VWS V14.01,2013-05-12 01:22:00,
2013-05-11 19:27:00,80.2,28.4,30.21,NW,306,2.2,8.1,15,0.00,,---,0.00,VWS V14.01,2013-05-12 01:27:00,
2013-05-11 19:32:00,79.7,28.0,30.21,SSW,209,3.6,5.4,15,0.00,,---,0.00,VWS V14.01,2013-05-12 01:32:00,
2013-05-11 19:37:00,79.2,27.6,30.21,WNW,282,2.7,5.4,15,0.00,,---,0.00,VWS V14.01,2013-05-12 01:37:00,
2013-05-11 19:42:00,78.4,27.0,30.21,WSW,251,0.0,5.4,15,0.00,,---,0.00,VWS V14.01,2013-05-12 01:42:00,
2013-05-11 19:47:00,77.9,26.6,30.21,WSW,250,2.7,3.6,15,0.00,,---,0.00,VWS V14.01,2013-05-12 01:47:00,
2013-05-11 19:52:00,77.4,26.1,30.21,South,179,4.0,4.0,15,0.00,,---,0.00,VWS V14.01,2013-05-12 01:52:00,
2013-05-11 19:57:00,76.8,25.7,30.21,WSW,252,0.0,4.0,15,0.00,,---,0.00,VWS V14.01,2013-05-12 01:57:00,
2013-05-11 20:02:00,76.1,25.1,30.21,West,262,0.0,0.0,15,0.00,,---,0.00,VWS V14.01,2013-05-12 02:02:00,
2013-05-11 20:07:00,75.4,24.6,30.21,West,262,0.0,0.0,15,0.00,,---,0.00,VWS V14.01,2013-05-12 02:07:00,
2013-05-11 20:12:00,74.8,25.7,30.21,SW,223,0.0,3.6,16,0.00,,---,0.00,VWS V14.01,2013-05-12 02:12:00,
2013-05-11 20:17:00,73.9,25.0,30.21,SW,230,0.0,2.2,16,0.00,,---,0.00,VWS V14.01,2013-05-12 02:17:00,
2013-05-11 20:22:00,72.3,23.6,30.21,WSW,244,0.0,2.2,16,0.00,,---,0.00,VWS V14.01,2013-05-12 02:22:00,
2013-05-11 20:27:00,70.9,23.9,30.21,West,264,0.0,2.2,17,0.00,,---,0.00,VWS V14.01,2013-05-12 02:27:00,
2013-05-11 20:32:00,70.0,23.2,30.21,West,270,0.0,0.0,17,0.00,,---,0.00,VWS V14.01,2013-05-12 02:32:00,
2013-05-11 20:37:00,68.9,26.2,30.21,West,270,0.0,0.0,20,0.00,,---,0.00,VWS V14.01,2013-05-12 02:37:00,
2013-05-11 20:42:00,67.6,25.2,30.21,West,269,0.0,0.0,20,0.00,,---,0.00,VWS V14.01,2013-05-12 02:42:00,
2013-05-11 20:47:00,66.9,26.9,30.21,West,273,0.0,0.0,22,0.00,,---,0.00,VWS V14.01,2013-05-12 02:47:00,
2013-05-11 20:52:00,66.2,26.3,30.21,West,273,0.0,0.0,22,0.00,,---,0.00,VWS V14.01,2013-05-12 02:52:00,
2013-05-11 20:57:00,65.7,26.9,30.21,West,273,0.0,0.0,23,0.00,,---,0.00,VWS V14.01,2013-05-12 02:57:00,
2013-05-11 21:02:00,65.3,26.6,30.21,WNW,290,0.0,2.2,23,0.00,,---,0.00,VWS V14.01,2013-05-12 03:02:00,
2013-05-11 21:07:00,65.1,26.4,30.21,West,259,0.0,2.2,23,0.00,,---,0.00,VWS V14.01,2013-05-12 03:07:00,
2013-05-11 21:12:00,64.9,26.3,30.24,West,259,0.0,2.2,23,0.00,,---,0.00,VWS V14.01,2013-05-12 03:12:00,
2013-05-11 21:17:00,64.0,25.5,30.24,West,259,0.0,0.0,23,0.00,,---,0.00,VWS V14.01,2013-05-12 03:17:00,
2013-05-11 21:23:00,63.5,25.1,30.24,SW,229,0.0,0.0,23,0.00,,---,0.00,VWS V14.01,2013-05-12 03:23:00,
2013-05-11 21:28:00,63.3,25.9,30.24,SSW,194,0.0,0.0,24,0.00,,---,0.00,VWS V14.01,2013-05-12 03:28:00,
2013-05-11 21:33:00,62.4,25.2,30.24,SSE,160,3.1,4.0,24,0.00,,---,0.00,VWS V14.01,2013-05-12 03:33:00,
2013-05-11 21:38:00,61.3,25.2,30.24,South,181,3.6,4.0,25,0.00,,---,0.00,VWS V14.01,2013-05-12 03:38:00,
2013-05-11 21:43:00,61.2,25.1,30.24,South,181,3.1,4.0,25,0.00,,---,0.00,VWS V14.01,2013-05-12 03:43:00,
2013-05-11 21:48:00,61.3,25.2,30.24,South,185,2.7,2.7,25,0.00,,---,0.00,VWS V14.01,2013-05-12 03:48:00,
2013-05-11 21:53:00,61.2,25.1,30.24,West,276,0.0,2.7,25,0.00,,---,0.00,VWS V14.01,2013-05-12 03:53:00,
2013-05-11 21:58:00,61.2,25.1,30.24,SW,235,0.0,2.7,25,0.00,,---,0.00,VWS V14.01,2013-05-12 03:58:00,
2013-05-11 22:01:00,61.0,24.9,30.24,SW,230,0.0,0.0,25,0.00,,---,0.00,VWS V14.01,2013-05-12 04:01:00,
2013-05-11 22:06:00,60.4,25.4,30.24,SW,230,0.0,0.0,26,0.00,,---,0.00,VWS V14.01,2013-05-12 04:06:00,
2013-05-11 22:11:00,59.7,24.8,30.24,SW,230,0.0,0.0,26,0.00,,---,0.00,VWS V14.01,2013-05-12 04:11:00,
2013-05-11 22:16:00,59.4,24.5,30.24,SW,232,0.0,0.0,26,0.00,,---,0.00,VWS V14.01,2013-05-12 04:16:00,
2013-05-11 22:21:00,58.8,24.9,30.24,South,191,0.0,0.0,27,0.00,,---,0.00,VWS V14.01,2013-05-12 04:21:00,
2013-05-11 22:26:00,58.3,24.5,30.24,South,191,0.0,0.0,27,0.00,,---,0.00,VWS V14.01,2013-05-12 04:26:00,
2013-05-11 22:31:00,57.4,24.6,30.24,South,191,0.0,0.0,28,0.00,,---,0.00,VWS V14.01,2013-05-12 04:31:00,
2013-05-11 22:36:00,56.7,24.0,30.24,South,191,0.0,0.0,28,0.00,,---,0.00,VWS V14.01,2013-05-12 04:36:00,
2013-05-11 22:41:00,56.8,27.3,30.24,WSW,245,0.0,0.0,32,0.00,,---,0.00,VWS V14.01,2013-05-12 04:41:00,
2013-05-11 22:46:00,57.0,27.5,30.24,WSW,245,0.0,0.0,32,0.00,,---,0.00,VWS V14.01,2013-05-12 04:46:00,
2013-05-11 22:51:00,57.2,27.6,30.24,WSW,245,0.0,0.0,32,0.00,,---,0.00,VWS V14.01,2013-05-12 04:51:00,
2013-05-11 22:56:00,57.2,27.6,30.24,WSW,245,0.0,0.0,32,0.00,,---,0.00,VWS V14.01,2013-05-12 04:56:00,
2013-05-11 23:01:00,57.2,27.6,30.24,WSW,245,0.0,0.0,32,0.00,,---,0.00,VWS V14.01,2013-05-12 05:01:00,
2013-05-11 23:06:00,56.5,27.0,30.24,WSW,245,0.0,0.0,32,0.00,,---,0.00,VWS V14.01,2013-05-12 05:06:00,
2013-05-11 23:11:00,55.9,27.3,30.24,WSW,245,0.0,0.0,33,0.00,,---,0.00,VWS V14.01,2013-05-12 05:11:00,
2013-05-11 23:16:00,55.4,26.8,30.24,WSW,245,0.0,0.0,33,0.00,,---,0.00,VWS V14.01,2013-05-12 05:16:00,
2013-05-11 23:21:00,55.2,28.8,30.24,WSW,248,0.0,0.0,36,0.00,,---,0.00,VWS V14.01,2013-05-12 05:21:00,
2013-05-11 23:26:00,55.6,28.4,30.24,WSW,248,0.0,0.0,35,0.00,,---,0.00,VWS V14.01,2013-05-12 05:26:00,
2013-05-11 23:31:00,55.9,28.7,30.24,West,268,0.0,0.0,35,0.00,,---,0.00,VWS V14.01,2013-05-12 05:31:00,
2013-05-11 23:36:00,55.9,28.7,30.24,West,274,0.0,0.0,35,0.00,,---,0.00,VWS V14.01,2013-05-12 05:36:00,
2013-05-11 23:41:00,55.9,28.7,30.24,West,274,0.0,0.0,35,0.00,,---,0.00,VWS V14.01,2013-05-12 05:41:00,
2013-05-11 23:46:00,55.4,28.2,30.24,West,274,0.0,0.0,35,0.00,,---,0.00,VWS V14.01,2013-05-12 05:46:00,
2013-05-11 23:51:00,55.0,28.6,30.24,WSW,252,0.0,0.0,36,0.00,,---,0.00,VWS V14.01,2013-05-12 05:51:00,
2013-05-11 23:56:00,54.9,28.4,30.24,WSW,256,0.0,0.0,36,0.00,,---,0.00,VWS V14.01,2013-05-12 05:56:00,